createdAt,value
2018-01-11T00:00:01.481Z,78.10
2018-01-11T00:01:01.390Z,78.77
2018-01-11T00:02:01.400Z,79.14
2018-01-11T00:03:01.346Z,77.72
2018-01-11T00:04:01.315Z,74.96
2018-01-11T00:05:01.288Z,76.29
2018-01-11T00:06:01.310Z,73.72
2018-01-11T00:07:01.245Z,74.58
2018-01-11T00:08:01.320Z,76.67
2018-01-11T00:09:01.187Z,76.86
2018-01-11T00:10:01.229Z,74.48
2018-01-11T00:11:01.145Z,74.48
2018-01-11T00:12:01.140Z,74.48
2018-01-11T00:13:01.091Z,73.06
2018-01-11T00:14:01.153Z,74.87
2018-01-11T00:15:01.039Z,74.96
2018-01-11T00:16:01.013Z,73.15
2018-01-11T00:17:00.985Z,71.44
2018-01-11T00:18:01.077Z,73.34
2018-01-11T00:19:00.932Z,71.25
2018-01-11T00:20:00.987Z,70.49
2018-01-11T00:21:00.879Z,72.11
2018-01-11T00:22:00.897Z,73.91
2018-01-11T00:23:00.830Z,71.91
2018-01-11T00:24:00.909Z,70.58
2018-01-11T00:25:00.824Z,70.39
2018-01-11T00:26:00.759Z,70.97
2018-01-11T00:27:00.825Z,69.35
2018-01-11T00:28:00.706Z,71.25
2018-01-11T00:29:00.736Z,69.82
2018-01-11T00:30:00.655Z,69.06
2018-01-11T00:31:00.627Z,72.67
2018-01-11T00:32:00.654Z,71.44
2018-01-11T00:33:00.574Z,72.96
2018-01-11T00:34:00.664Z,71.53
2018-01-11T00:35:00.523Z,70.74
2018-01-11T00:36:00.580Z,70.49
2018-01-11T00:37:00.472Z,69.44
2018-01-11T00:38:00.484Z,69.06
2018-01-11T00:39:00.422Z,70.58
2018-01-11T00:40:00.494Z,74.10
2018-01-11T00:41:00.375Z,72.58
2018-01-11T00:42:00.404Z,70.20
2018-01-11T00:43:00.319Z,74.20
2018-01-11T00:44:00.316Z,75.40
2018-01-11T00:45:00.274Z,74.07
2018-01-11T00:46:00.330Z,72.35
2018-01-11T00:47:00.223Z,72.30
2018-01-11T00:48:00.195Z,72.45
2018-01-11T00:49:00.170Z,71.12
2018-01-11T00:50:00.248Z,71.97
2018-01-11T00:51:00.115Z,70.26
2018-01-11T00:52:00.162Z,74.10
2018-01-11T00:53:00.068Z,75.59
2018-01-11T00:54:00.066Z,74.16
2018-01-11T00:55:00.020Z,75.40
2018-01-11T00:55:59.989Z,72.92
2018-01-11T00:56:59.965Z,71.63
2018-01-11T00:57:59.988Z,73.06
2018-01-11T00:58:59.913Z,70.87
2018-01-11T00:59:59.906Z,71.25
2018-01-11T01:00:59.868Z,70.20
2018-01-11T01:01:59.841Z,68.96
2018-01-11T01:02:59.813Z,68.87
2018-01-11T01:03:59.823Z,69.06
2018-01-11T01:04:59.762Z,68.96
2018-01-11T01:05:59.834Z,68.96
2018-01-11T01:06:59.708Z,69.15
2018-01-11T01:07:59.745Z,68.49
2018-01-11T01:08:59.658Z,69.25
2018-01-11T01:09:59.654Z,71.06
2018-01-11T01:10:59.601Z,71.15
2018-01-11T01:11:59.581Z,70.68
2018-01-11T01:12:59.563Z,69.25
2018-01-11T01:13:59.576Z,68.30
2018-01-11T01:14:59.501Z,69.15
2018-01-11T01:15:59.593Z,69.15
2018-01-11T01:16:59.454Z,68.87
2018-01-11T01:17:59.424Z,71.72
2018-01-11T01:18:59.399Z,69.92
2018-01-11T01:19:59.418Z,69.44
2018-01-11T01:20:59.351Z,69.63
2018-01-11T01:21:59.422Z,68.40
2018-01-11T01:22:59.308Z,68.49
2018-01-11T01:23:59.333Z,70.68
2018-01-11T01:24:59.249Z,70.01
2018-01-11T01:25:59.242Z,72.11
2018-01-11T01:26:59.247Z,71.63
2018-01-11T01:27:59.169Z,70.49
2018-01-11T01:28:59.260Z,68.59
2018-01-11T01:29:59.118Z,68.21
2018-01-11T01:30:59.170Z,67.82
2018-01-11T01:31:59.070Z,68.01
2018-01-11T01:32:59.047Z,67.35
2018-01-11T01:33:59.089Z,68.40
2018-01-11T01:34:58.992Z,69.15
2018-01-11T01:35:59.007Z,70.49
2018-01-11T01:36:58.942Z,71.15
2018-01-11T01:37:59.008Z,72.01
2018-01-11T01:38:58.891Z,70.49
2018-01-11T01:39:58.914Z,69.44
2018-01-11T01:40:58.844Z,70.30
2018-01-11T01:41:58.823Z,69.73
2018-01-11T01:42:58.788Z,69.54
2018-01-11T01:43:58.839Z,68.30
2018-01-11T01:44:58.733Z,68.30
2018-01-11T01:45:58.718Z,68.87
2018-01-11T01:46:58.728Z,67.82
2018-01-11T01:47:58.761Z,68.40
2018-01-11T01:48:58.631Z,69.73
2018-01-11T01:49:58.671Z,70.68
2018-01-11T01:50:58.583Z,70.01
2018-01-11T01:51:58.564Z,70.87
2018-01-11T01:52:58.529Z,70.68
2018-01-11T01:53:58.593Z,70.10
2018-01-11T01:54:58.479Z,71.53
2018-01-11T01:55:58.505Z,70.97
2018-01-11T01:56:58.426Z,71.44
2018-01-11T01:57:58.410Z,70.68
2018-01-11T01:58:58.378Z,70.58
2018-01-11T01:59:58.430Z,71.53
2018-01-11T02:00:58.325Z,72.30
2018-01-11T02:01:58.335Z,70.68
2018-01-11T02:02:58.279Z,69.15
2018-01-11T02:03:58.247Z,69.25
2018-01-11T02:04:58.222Z,70.58
2018-01-11T02:05:58.257Z,70.77
2018-01-11T02:06:58.176Z,69.73
2018-01-11T02:07:58.165Z,70.39
2018-01-11T02:08:58.127Z,69.06
2018-01-11T02:09:58.179Z,70.58
2018-01-11T02:10:58.072Z,70.77
2018-01-11T02:11:58.087Z,70.49
2018-01-11T02:12:58.020Z,69.06
2018-01-11T02:13:58.105Z,69.06
2018-01-11T02:14:58.006Z,71.63
2018-01-11T02:15:57.943Z,72.49
2018-01-11T02:16:58.018Z,71.53
2018-01-11T02:17:57.892Z,70.97
2018-01-11T02:18:57.930Z,70.39
2018-01-11T02:19:57.844Z,73.25
2018-01-11T02:20:57.818Z,74.39
2018-01-11T02:21:57.867Z,72.96
2018-01-11T02:22:57.770Z,71.25
2018-01-11T02:23:57.859Z,71.34
2018-01-11T02:24:57.727Z,70.77
2018-01-11T02:25:57.690Z,71.25
2018-01-11T02:26:57.667Z,71.91
2018-01-11T02:27:57.678Z,72.11
2018-01-11T02:28:57.620Z,71.72
2018-01-11T02:29:57.692Z,72.49
2018-01-11T02:30:57.561Z,71.53
2018-01-11T02:31:57.538Z,72.96
2018-01-11T02:32:58.528Z,71.63
2018-01-11T02:33:57.489Z,73.25
2018-01-11T02:34:57.513Z,73.72
2018-01-11T02:35:57.438Z,73.15
2018-01-11T02:36:57.420Z,73.15
2018-01-11T02:37:57.384Z,73.34
2018-01-11T02:38:57.356Z,73.02
2018-01-11T02:39:57.441Z,73.91
2018-01-11T02:40:57.305Z,74.20
2018-01-11T02:41:57.352Z,73.30
2018-01-11T02:42:57.257Z,74.29
2018-01-11T02:43:57.234Z,72.49
2018-01-11T02:44:57.200Z,71.59
2018-01-11T02:45:57.272Z,71.50
2018-01-11T02:46:57.159Z,72.49
2018-01-11T02:47:57.185Z,71.44
2018-01-11T02:48:57.106Z,70.49
2018-01-11T02:49:57.080Z,72.16
2018-01-11T02:50:57.059Z,71.69
2018-01-11T02:51:57.107Z,71.34
2018-01-11T02:52:57.013Z,70.54
2018-01-11T02:53:57.015Z,72.26
2018-01-11T02:54:56.971Z,71.25
2018-01-11T02:55:56.927Z,70.54
2018-01-11T02:56:56.931Z,70.64
2018-01-11T02:57:56.875Z,70.49
2018-01-11T02:58:56.947Z,70.58
2018-01-11T02:59:56.819Z,74.77
2018-01-11T03:00:56.853Z,74.07
2018-01-11T03:01:56.861Z,72.64
2018-01-11T03:02:56.749Z,73.02
2018-01-11T03:03:56.773Z,74.07
2018-01-11T03:04:56.694Z,72.55
2018-01-11T03:05:56.781Z,71.41
2018-01-11T03:06:56.648Z,70.77
2018-01-11T03:07:56.691Z,71.41
2018-01-11T03:08:56.592Z,71.25
2018-01-11T03:09:56.605Z,70.77
2018-01-11T03:10:56.545Z,70.49
2018-01-11T03:11:56.615Z,71.63
2018-01-11T03:12:56.490Z,71.44
2018-01-11T03:13:56.467Z,70.68
2018-01-11T03:14:56.533Z,70.39
2018-01-11T03:15:56.409Z,70.77
2018-01-11T03:16:56.443Z,71.63
2018-01-11T03:17:56.365Z,71.15
2018-01-11T03:18:56.340Z,71.63
2018-01-11T03:19:56.312Z,73.63
2018-01-11T03:20:56.362Z,73.72
2018-01-11T03:21:56.262Z,73.72
2018-01-11T03:22:57.294Z,72.77
2018-01-11T03:23:56.212Z,72.20
2018-01-11T03:24:56.187Z,74.39
2018-01-11T03:25:56.186Z,74.48
2018-01-11T03:26:56.128Z,75.02
2018-01-11T03:27:56.201Z,73.97
2018-01-11T03:28:56.085Z,72.45
2018-01-11T03:29:56.109Z,74.07
2018-01-11T03:30:56.034Z,73.40
2018-01-11T03:31:56.026Z,73.21
2018-01-11T03:32:55.983Z,74.07
2018-01-11T03:33:56.032Z,72.92
2018-01-11T03:34:55.934Z,72.07
2018-01-11T03:35:55.940Z,72.74
2018-01-11T03:36:55.878Z,72.92
2018-01-11T03:37:55.953Z,71.97
2018-01-11T03:38:55.822Z,72.35
2018-01-11T03:39:55.864Z,72.92
2018-01-11T03:40:55.773Z,72.07
2018-01-11T03:41:55.753Z,72.45
2018-01-11T03:42:55.738Z,73.11
2018-01-11T03:43:55.788Z,72.64
2018-01-11T03:44:55.673Z,72.45
2018-01-11T03:45:55.695Z,72.45
2018-01-11T03:46:55.623Z,72.16
2018-01-11T03:47:55.592Z,72.07
2018-01-11T03:48:55.570Z,71.69
2018-01-11T03:49:55.617Z,71.50
2018-01-11T03:50:55.523Z,71.50
2018-01-11T03:51:55.527Z,71.59
2018-01-11T03:52:55.472Z,71.50
2018-01-11T03:53:55.444Z,70.54
2018-01-11T03:54:55.444Z,70.51
2018-01-11T03:55:55.394Z,69.46
2018-01-11T03:56:55.472Z,69.09
2018-01-11T03:57:55.338Z,68.80
2018-01-11T03:58:55.319Z,69.09
2018-01-11T03:59:55.288Z,69.85
2018-01-11T04:00:55.280Z,68.99
2018-01-11T04:01:55.239Z,69.85
2018-01-11T04:02:55.287Z,70.32
2018-01-11T04:03:55.188Z,69.75
2018-01-11T04:04:55.200Z,69.18
2018-01-11T04:05:55.135Z,70.04
2018-01-11T04:06:55.210Z,69.85
2018-01-11T04:07:55.083Z,69.27
2018-01-11T04:08:55.120Z,68.80
2018-01-11T04:09:55.029Z,68.99
2018-01-11T04:10:55.037Z,69.27
2018-01-11T04:11:54.978Z,69.09
2018-01-11T04:12:55.965Z,69.37
2018-01-11T04:13:54.925Z,68.99
2018-01-11T04:14:54.952Z,69.46
2018-01-11T04:15:54.876Z,70.79
2018-01-11T04:16:54.854Z,70.51
2018-01-11T04:17:54.825Z,69.85
2018-01-11T04:18:54.874Z,70.42
2018-01-11T04:19:54.776Z,71.27
2018-01-11T04:20:54.783Z,70.51
2018-01-11T04:21:54.718Z,69.85
2018-01-11T04:22:54.797Z,71.08
2018-01-11T04:23:54.676Z,70.04
2018-01-11T04:24:54.710Z,68.71
2018-01-11T04:25:54.619Z,70.61
2018-01-11T04:26:54.586Z,70.61
2018-01-11T04:27:54.579Z,69.94
2018-01-11T04:28:54.628Z,68.99
2018-01-11T04:29:54.516Z,68.33
2018-01-11T04:30:54.540Z,68.23
2018-01-11T04:31:54.458Z,67.76
2018-01-11T04:32:54.446Z,68.90
2018-01-11T04:33:54.439Z,68.23
2018-01-11T04:34:54.394Z,68.99
2018-01-11T04:35:54.467Z,69.56
2018-01-11T04:36:54.337Z,69.18
2018-01-11T04:37:54.377Z,69.18
2018-01-11T04:38:54.283Z,68.42
2018-01-11T04:39:54.250Z,68.42
2018-01-11T04:40:54.227Z,68.13
2018-01-11T04:41:54.298Z,67.66
2018-01-11T04:42:54.184Z,68.99
2018-01-11T04:43:54.208Z,69.37
2018-01-11T04:44:54.122Z,69.02
2018-01-11T04:45:54.105Z,68.93
2018-01-11T04:46:54.081Z,69.12
2018-01-11T04:47:54.132Z,70.07
2018-01-11T04:48:54.031Z,69.60
2018-01-11T04:49:54.051Z,69.02
2018-01-11T04:50:53.977Z,69.21
2018-01-11T04:51:53.947Z,68.93
2018-01-11T04:52:53.923Z,71.12
2018-01-11T04:53:53.990Z,71.22
2018-01-11T04:54:53.872Z,70.64
2018-01-11T04:55:53.875Z,70.07
2018-01-11T04:56:53.819Z,70.36
2018-01-11T04:57:53.886Z,70.83
2018-01-11T04:58:53.762Z,69.88
2018-01-11T04:59:53.797Z,68.84
2018-01-11T05:00:53.715Z,69.02
2018-01-11T05:01:53.689Z,68.93
2018-01-11T05:02:53.672Z,69.41
2018-01-11T05:03:53.747Z,70.07
2018-01-11T05:04:53.624Z,70.26
2018-01-11T05:05:53.599Z,68.84
2018-01-11T05:06:53.572Z,68.93
2018-01-11T05:07:53.647Z,68.93
2018-01-11T05:08:53.508Z,69.69
2018-01-11T05:09:53.559Z,69.98
2018-01-11T05:10:53.455Z,70.45
2018-01-11T05:11:53.458Z,70.54
2018-01-11T05:12:53.406Z,70.83
2018-01-11T05:13:53.470Z,70.93
2018-01-11T05:14:53.358Z,71.41
2018-01-11T05:15:53.382Z,70.93
2018-01-11T05:16:53.304Z,70.54
2018-01-11T05:17:53.288Z,70.54
2018-01-11T05:18:53.256Z,70.64
2018-01-11T05:19:53.302Z,70.64
2018-01-11T05:20:53.206Z,70.93
2018-01-11T05:21:53.214Z,71.31
2018-01-11T05:22:53.225Z,71.50
2018-01-11T05:23:53.120Z,70.54
2018-01-11T05:24:53.132Z,71.22
2018-01-11T05:25:53.071Z,71.69
2018-01-11T05:26:53.152Z,71.31
2018-01-11T05:27:53.152Z,71.78
2018-01-11T05:28:52.994Z,71.50
2018-01-11T05:29:52.980Z,71.31
2018-01-11T05:30:52.949Z,72.07
2018-01-11T05:31:52.968Z,71.41
2018-01-11T05:32:52.978Z,72.16
2018-01-11T05:33:52.865Z,71.50
2018-01-11T05:34:52.880Z,71.59
2018-01-11T05:35:52.818Z,71.41
2018-01-11T05:36:52.893Z,71.22
2018-01-11T05:37:52.766Z,71.97
2018-01-11T05:38:52.810Z,71.97
2018-01-11T05:39:52.717Z,72.35
2018-01-11T05:40:52.712Z,71.41
2018-01-11T05:41:52.663Z,71.59
2018-01-11T05:42:52.642Z,72.74
2018-01-11T05:43:52.608Z,73.30
2018-01-11T05:44:52.652Z,73.11
2018-01-11T05:45:52.559Z,72.64
2018-01-11T05:46:52.546Z,71.50
2018-01-11T05:47:52.512Z,72.35
2018-01-11T05:48:52.482Z,72.92
2018-01-11T05:49:52.456Z,72.92
2018-01-11T05:50:52.470Z,72.55
2018-01-11T05:51:52.476Z,72.55
2018-01-11T05:52:52.380Z,72.83
2018-01-11T05:53:52.359Z,73.11
2018-01-11T05:54:52.321Z,73.21
2018-01-11T05:55:52.310Z,72.83
2018-01-11T05:56:52.274Z,72.45
2018-01-11T05:57:52.260Z,72.16
2018-01-11T05:58:52.240Z,72.35
2018-01-11T05:59:52.204Z,71.88
2018-01-11T06:00:52.178Z,72.26
2018-01-11T06:01:52.151Z,71.31
2018-01-11T06:02:52.119Z,71.22
2018-01-11T06:03:52.097Z,72.16
2018-01-11T06:04:52.082Z,71.02
2018-01-11T06:05:52.048Z,71.41
2018-01-11T06:06:52.019Z,72.45
2018-01-11T06:07:51.992Z,71.12
2018-01-11T06:08:51.970Z,71.50
2018-01-11T06:09:51.938Z,71.12
2018-01-11T06:10:51.925Z,71.02
2018-01-11T06:11:51.885Z,72.45
2018-01-11T06:12:51.868Z,71.31
2018-01-11T06:13:51.834Z,71.12
2018-01-11T06:14:51.815Z,71.59
2018-01-11T06:15:51.783Z,72.64
2018-01-11T06:16:51.767Z,73.30
2018-01-11T06:17:51.732Z,73.02
2018-01-11T06:18:51.721Z,72.64
2018-01-11T06:19:51.680Z,71.97
2018-01-11T06:20:51.660Z,71.22
2018-01-11T06:21:51.634Z,70.83
2018-01-11T06:22:51.616Z,70.26
2018-01-11T06:23:51.586Z,70.54
2018-01-11T06:24:51.556Z,71.31
2018-01-11T06:25:51.536Z,70.64
2018-01-11T06:26:51.504Z,71.12
2018-01-11T06:27:51.480Z,71.59
2018-01-11T06:28:51.458Z,73.02
2018-01-11T06:29:51.437Z,72.26
2018-01-11T06:30:51.403Z,72.74
2018-01-11T06:31:51.385Z,72.64
2018-01-11T06:32:51.349Z,72.07
2018-01-11T06:33:51.330Z,73.59
2018-01-11T06:34:51.296Z,72.64
2018-01-11T06:35:51.277Z,73.30
2018-01-11T06:36:51.244Z,73.30
2018-01-11T06:37:51.222Z,73.21
2018-01-11T06:38:51.195Z,73.11
2018-01-11T06:39:51.177Z,72.83
2018-01-11T06:40:51.147Z,72.07
2018-01-11T06:41:51.119Z,72.26
2018-01-11T06:42:51.090Z,72.35
2018-01-11T06:43:51.066Z,73.46
2018-01-11T06:44:51.054Z,72.99
2018-01-11T06:45:51.017Z,72.03
2018-01-11T06:46:50.992Z,71.08
2018-01-11T06:47:50.968Z,72.70
2018-01-11T06:48:50.940Z,73.08
2018-01-11T06:49:50.921Z,72.60
2018-01-11T06:50:50.889Z,71.46
2018-01-11T06:51:50.953Z,73.18
2018-01-11T06:52:50.949Z,72.13
2018-01-11T06:53:50.866Z,72.60
2018-01-11T06:54:50.842Z,72.22
2018-01-11T06:55:50.828Z,71.56
2018-01-11T06:56:50.788Z,70.99
2018-01-11T06:57:50.791Z,71.27
2018-01-11T06:58:50.679Z,71.56
2018-01-11T06:59:50.655Z,70.42
2018-01-11T07:00:50.629Z,70.51
2018-01-11T07:01:50.710Z,70.61
2018-01-11T07:02:50.576Z,70.32
2018-01-11T07:03:50.560Z,70.51
2018-01-11T07:04:50.534Z,70.64
2018-01-11T07:05:50.512Z,70.99
2018-01-11T07:06:50.477Z,71.08
2018-01-11T07:07:50.549Z,71.94
2018-01-11T07:08:50.426Z,72.22
2018-01-11T07:09:50.458Z,72.22
2018-01-11T07:10:50.370Z,72.70
2018-01-11T07:11:50.372Z,71.46
2018-01-11T07:12:50.315Z,71.37
2018-01-11T07:13:50.385Z,71.46
2018-01-11T07:14:50.287Z,70.70
2018-01-11T07:15:50.398Z,70.42
2018-01-11T07:16:50.217Z,70.83
2018-01-11T07:17:50.209Z,70.83
2018-01-11T07:18:50.213Z,70.83
2018-01-11T07:19:50.138Z,71.41
2018-01-11T07:20:50.230Z,71.18
2018-01-11T07:21:50.085Z,70.61
2018-01-11T07:22:50.134Z,70.45
2018-01-11T07:23:50.106Z,71.59
2018-01-11T07:24:50.007Z,71.27
2018-01-11T07:25:49.981Z,72.22
2018-01-11T07:26:50.063Z,72.13
2018-01-11T07:27:49.931Z,71.56
2018-01-11T07:28:49.978Z,72.07
2018-01-11T07:29:49.887Z,71.56
2018-01-11T07:30:49.869Z,71.37
2018-01-11T07:31:49.898Z,71.46
2018-01-11T07:32:49.804Z,72.22
2018-01-11T07:33:49.803Z,71.08
2018-01-11T07:34:49.760Z,70.89
2018-01-11T07:35:50.739Z,71.46
2018-01-11T07:36:49.699Z,71.46
2018-01-11T07:37:49.748Z,70.61
2018-01-11T07:38:49.651Z,70.51
2018-01-11T07:39:49.641Z,70.99
2018-01-11T07:40:49.606Z,70.93
2018-01-11T07:41:49.572Z,71.50
2018-01-11T07:42:49.546Z,71.37
2018-01-11T07:43:49.569Z,72.45
2018-01-11T07:44:49.492Z,72.41
2018-01-11T07:45:49.579Z,71.56
2018-01-11T07:46:49.451Z,71.37
2018-01-11T07:47:49.419Z,71.27
2018-01-11T07:48:49.390Z,70.83
2018-01-11T07:49:49.402Z,72.03
2018-01-11T07:50:49.353Z,71.46
2018-01-11T07:51:49.416Z,70.70
2018-01-11T07:52:49.289Z,70.45
2018-01-11T07:53:49.260Z,70.99
2018-01-11T07:54:49.341Z,72.13
2018-01-11T07:55:49.207Z,70.42
2018-01-11T07:56:49.244Z,71.56
2018-01-11T07:57:49.164Z,71.37
2018-01-11T07:58:49.162Z,70.42
2018-01-11T07:59:49.109Z,69.27
2018-01-11T08:00:49.170Z,68.90
2018-01-11T08:01:49.060Z,68.39
2018-01-11T08:02:49.084Z,67.91
2018-01-11T08:03:49.008Z,67.06
2018-01-11T08:04:48.974Z,66.80
2018-01-11T08:05:48.956Z,67.85
2018-01-11T08:06:49.005Z,66.42
2018-01-11T08:07:48.895Z,67.28
2018-01-11T08:08:48.916Z,67.94
2018-01-11T08:09:48.853Z,67.76
2018-01-11T08:10:48.826Z,68.99
2018-01-11T08:11:48.808Z,68.42
2018-01-11T08:12:48.856Z,67.47
2018-01-11T08:13:48.742Z,66.90
2018-01-11T08:14:48.753Z,67.19
2018-01-11T08:15:48.692Z,67.38
2018-01-11T08:16:48.668Z,67.28
2018-01-11T08:17:48.640Z,66.80
2018-01-11T08:18:48.676Z,66.58
2018-01-11T08:19:48.588Z,66.14
2018-01-11T08:20:48.582Z,65.67
2018-01-11T08:21:48.534Z,66.71
2018-01-11T08:22:48.515Z,67.66
2018-01-11T08:23:48.498Z,67.28
2018-01-11T08:24:48.457Z,67.19
2018-01-11T08:25:48.511Z,67.47
2018-01-11T08:26:48.410Z,67.38
2018-01-11T08:27:48.426Z,67.28
2018-01-11T08:28:48.353Z,67.19
2018-01-11T08:29:48.438Z,67.28
2018-01-11T08:30:48.302Z,66.42
2018-01-11T08:31:48.347Z,67.38
2018-01-11T08:32:48.254Z,67.57
2018-01-11T08:33:48.243Z,67.38
2018-01-11T08:34:48.202Z,66.61
2018-01-11T08:35:48.203Z,66.14
2018-01-11T08:36:48.178Z,65.86
2018-01-11T08:37:48.148Z,66.80
2018-01-11T08:38:48.123Z,67.19
2018-01-11T08:39:48.077Z,67.19
2018-01-11T08:40:48.045Z,67.19
2018-01-11T08:41:48.113Z,67.57
2018-01-11T08:42:47.998Z,66.24
2018-01-11T08:43:48.022Z,65.67
2018-01-11T08:44:47.943Z,66.61
2018-01-11T08:45:47.920Z,67.19
2018-01-11T08:46:47.894Z,66.33
2018-01-11T08:47:47.961Z,67.47
2018-01-11T08:48:47.835Z,67.85
2018-01-11T08:49:47.862Z,68.90
2018-01-11T08:50:47.789Z,68.42
2018-01-11T08:51:47.759Z,69.09
2018-01-11T08:52:47.776Z,68.52
2018-01-11T08:53:47.716Z,68.23
2018-01-11T08:54:47.791Z,67.94
2018-01-11T08:55:47.655Z,67.66
2018-01-11T08:56:47.700Z,67.88
2018-01-11T08:57:47.615Z,67.69
2018-01-11T08:58:47.611Z,69.02
2018-01-11T08:59:47.555Z,68.93
2018-01-11T09:00:47.630Z,68.93
2018-01-11T09:01:47.508Z,69.12
2018-01-11T09:02:47.473Z,70.07
2018-01-11T09:03:47.454Z,70.45
2018-01-11T09:04:47.446Z,69.88
2018-01-11T09:05:47.397Z,69.88
2018-01-11T09:06:47.466Z,71.63
2018-01-11T09:07:47.346Z,70.58
2018-01-11T09:08:47.336Z,70.68
2018-01-11T09:09:47.341Z,70.54
2018-01-11T09:10:47.389Z,71.25
2018-01-11T09:11:47.257Z,72.30
2018-01-11T09:12:48.338Z,71.44
2018-01-11T09:13:47.195Z,72.67
2018-01-11T09:14:47.172Z,71.12
2018-01-11T09:15:47.211Z,71.53
2018-01-11T09:16:47.136Z,70.87
2018-01-11T09:17:47.124Z,71.34
2018-01-11T09:18:47.065Z,71.53
2018-01-11T09:19:47.136Z,72.58
2018-01-11T09:20:47.040Z,73.25
2018-01-11T09:21:46.996Z,72.30
2018-01-11T09:22:47.116Z,72.49
2018-01-11T09:23:46.945Z,73.72
2018-01-11T09:24:46.965Z,73.72
2018-01-11T09:25:46.890Z,73.15
2018-01-11T09:26:46.862Z,73.72
2018-01-11T09:27:46.884Z,73.91
2018-01-11T09:28:46.813Z,74.01
2018-01-11T09:29:46.913Z,74.29
2018-01-11T09:30:46.782Z,73.72
2018-01-11T09:31:48.732Z,72.01
2018-01-11T09:32:48.310Z,73.63
2018-01-11T09:33:47.745Z,72.67
2018-01-11T09:34:46.661Z,72.01
2018-01-11T09:35:46.735Z,72.86
2018-01-11T09:36:46.610Z,72.58
2018-01-11T09:37:46.591Z,74.14
2018-01-11T09:38:46.565Z,74.14
2018-01-11T09:39:46.561Z,75.09
2018-01-11T09:40:46.506Z,75.43
2018-01-11T09:41:46.579Z,76.01
2018-01-11T09:42:46.459Z,75.05
2018-01-11T09:43:46.429Z,74.52
2018-01-11T09:44:46.434Z,74.43
2018-01-11T09:45:46.491Z,73.76
2018-01-11T09:46:46.359Z,75.28
2018-01-11T09:47:46.441Z,75.38
2018-01-11T09:48:46.338Z,75.38
2018-01-11T09:49:46.284Z,75.38
2018-01-11T09:50:46.323Z,75.85
2018-01-11T09:51:46.227Z,75.76
2018-01-11T09:52:47.261Z,75.28
2018-01-11T09:53:46.176Z,75.85
2018-01-11T09:54:46.249Z,77.37
2018-01-11T09:55:46.173Z,77.56
2018-01-11T09:56:47.193Z,77.47
2018-01-11T09:57:46.079Z,76.71
2018-01-11T09:58:46.068Z,78.52
2018-01-11T09:59:46.038Z,77.28
2018-01-11T10:00:46.082Z,77.56
2018-01-11T10:01:45.981Z,76.42
2018-01-11T10:02:47.020Z,76.33
2018-01-11T10:03:45.927Z,77.37
2018-01-11T10:04:46.009Z,78.71
2018-01-11T10:05:45.874Z,76.52
2018-01-11T10:06:45.918Z,77.66
2018-01-11T10:07:45.824Z,78.14
2018-01-11T10:08:45.831Z,77.95
2018-01-11T10:09:45.774Z,76.52
2018-01-11T10:10:45.846Z,77.28
2018-01-11T10:11:45.726Z,76.90
2018-01-11T10:12:45.704Z,77.09
2018-01-11T10:13:45.676Z,77.47
2018-01-11T10:14:45.773Z,77.51
2018-01-11T10:15:45.624Z,76.42
2018-01-11T10:16:45.683Z,77.61
2018-01-11T10:17:45.579Z,77.22
2018-01-11T10:18:45.550Z,77.03
2018-01-11T10:19:45.529Z,77.03
2018-01-11T10:20:45.604Z,77.42
2018-01-11T10:21:45.482Z,77.32
2018-01-11T10:22:46.541Z,77.42
2018-01-11T10:23:45.429Z,79.13
2018-01-11T10:24:45.404Z,79.03
2018-01-11T10:25:45.434Z,80.84
2018-01-11T10:26:45.354Z,79.32
2018-01-11T10:27:45.345Z,78.56
2018-01-11T10:28:45.299Z,78.56
2018-01-11T10:29:45.359Z,77.42
2018-01-11T10:30:45.253Z,77.42
2018-01-11T10:31:45.267Z,77.32
2018-01-11T10:32:45.200Z,77.03
2018-01-11T10:33:45.186Z,77.80
2018-01-11T10:34:45.158Z,77.51
2018-01-11T10:35:45.125Z,78.94
2018-01-11T10:36:45.103Z,78.94
2018-01-11T10:37:45.102Z,79.03
2018-01-11T10:38:45.074Z,78.08
2018-01-11T10:39:45.125Z,78.65
2018-01-11T10:40:45.001Z,79.03
2018-01-11T10:41:44.981Z,79.99
2018-01-11T10:42:44.963Z,80.55
2018-01-11T10:43:45.040Z,81.18
2018-01-11T10:44:44.913Z,81.18
2018-01-11T10:45:44.952Z,80.13
2018-01-11T10:46:44.861Z,78.52
2018-01-11T10:47:44.827Z,81.37
2018-01-11T10:48:44.806Z,80.23
2018-01-11T10:49:44.875Z,78.99
2018-01-11T10:50:44.759Z,78.80
2018-01-11T10:51:44.788Z,78.42
2018-01-11T10:52:44.707Z,77.56
2018-01-11T10:53:50.538Z,79.75
2018-01-11T10:54:44.718Z,79.19
2018-01-11T10:55:44.919Z,78.52
2018-01-11T10:56:44.740Z,78.71
2018-01-11T10:57:44.583Z,77.95
2018-01-11T10:58:44.635Z,77.47
2018-01-11T10:59:44.536Z,77.56
2018-01-11T11:00:44.557Z,77.66
2018-01-11T11:01:44.483Z,77.00
2018-01-11T11:02:45.478Z,76.90
2018-01-11T11:03:44.432Z,78.61
2018-01-11T11:04:44.464Z,79.28
2018-01-11T11:05:44.383Z,79.38
2018-01-11T11:06:44.376Z,78.90
2018-01-11T11:07:44.333Z,77.53
2018-01-11T11:08:44.388Z,77.53
2018-01-11T11:09:44.287Z,76.90
2018-01-11T11:10:44.254Z,77.09
2018-01-11T11:11:44.243Z,78.23
2018-01-11T11:12:45.234Z,76.90
2018-01-11T11:13:44.182Z,77.95
2018-01-11T11:14:44.223Z,77.09
2018-01-11T11:15:44.130Z,77.66
2018-01-11T11:16:44.154Z,78.42
2018-01-11T11:17:44.088Z,77.56
2018-01-11T11:18:44.151Z,78.33
2018-01-11T11:19:44.027Z,78.33
2018-01-11T11:20:44.063Z,77.28
2018-01-11T11:21:43.978Z,77.56
2018-01-11T11:22:43.962Z,79.75
2018-01-11T11:23:43.924Z,78.33
2018-01-11T11:24:43.985Z,78.61
2018-01-11T11:25:43.880Z,77.47
2018-01-11T11:26:43.900Z,77.95
2018-01-11T11:27:43.828Z,78.80
2018-01-11T11:28:43.806Z,78.42
2018-01-11T11:29:43.816Z,77.00
2018-01-11T11:30:43.766Z,76.75
2018-01-11T11:31:43.827Z,76.46
2018-01-11T11:32:43.705Z,77.70
2018-01-11T11:33:43.736Z,78.33
2018-01-11T11:34:43.658Z,79.19
2018-01-11T11:35:43.705Z,77.09
2018-01-11T11:36:43.603Z,76.61
2018-01-11T11:37:43.674Z,75.47
2018-01-11T11:38:43.551Z,75.19
2018-01-11T11:39:43.572Z,75.38
2018-01-11T11:40:43.501Z,74.62
2018-01-11T11:41:43.593Z,75.76
2018-01-11T11:42:43.452Z,75.19
2018-01-11T11:43:43.498Z,75.47
2018-01-11T11:44:43.402Z,75.57
2018-01-11T11:45:43.375Z,74.99
2018-01-11T11:46:43.351Z,75.67
2018-01-11T11:47:43.430Z,75.76
2018-01-11T11:48:43.302Z,76.61
2018-01-11T11:49:43.334Z,77.76
2018-01-11T11:50:43.258Z,77.76
2018-01-11T11:51:43.230Z,77.28
2018-01-11T11:52:43.208Z,76.42
2018-01-11T11:53:43.257Z,75.76
2018-01-11T11:54:43.152Z,77.09
2018-01-11T11:55:43.178Z,77.28
2018-01-11T11:56:43.101Z,77.00
2018-01-11T11:57:43.073Z,77.47
2018-01-11T11:58:44.116Z,76.23
2018-01-11T11:59:43.024Z,76.01
2018-01-11T12:00:43.104Z,74.99
2018-01-11T12:01:42.974Z,75.62
2018-01-11T12:02:43.018Z,75.24
2018-01-11T12:03:42.927Z,75.91
2018-01-11T12:04:42.930Z,75.47
2018-01-11T12:05:42.875Z,74.90
2018-01-11T12:06:42.953Z,76.33
2018-01-11T12:07:42.822Z,76.33
2018-01-11T12:08:42.854Z,76.52
2018-01-11T12:09:42.766Z,76.23
2018-01-11T12:10:42.865Z,75.95
2018-01-11T12:11:42.727Z,76.52
2018-01-11T12:12:43.805Z,76.71
2018-01-11T12:13:42.677Z,76.52
2018-01-11T12:14:42.648Z,75.09
2018-01-11T12:15:42.624Z,76.52
2018-01-11T12:16:42.718Z,76.33
2018-01-11T12:17:42.567Z,75.67
2018-01-11T12:18:42.620Z,74.62
2018-01-11T12:19:42.536Z,75.09
2018-01-11T12:20:42.501Z,77.28
2018-01-11T12:21:42.471Z,75.47
2018-01-11T12:22:43.468Z,75.19
2018-01-11T12:23:42.420Z,76.90
2018-01-11T12:24:42.470Z,76.23
2018-01-11T12:25:42.377Z,77.47
2018-01-11T12:26:42.341Z,75.85
2018-01-11T12:27:43.401Z,77.00
2018-01-11T12:28:42.290Z,76.71
2018-01-11T12:29:43.304Z,77.22
2018-01-11T12:30:42.240Z,77.95
2018-01-11T12:31:42.291Z,76.94
2018-01-11T12:32:42.194Z,76.94
2018-01-11T12:33:42.208Z,79.80
2018-01-11T12:34:42.151Z,77.61
2018-01-11T12:35:42.222Z,78.65
2018-01-11T12:36:42.095Z,78.94
2018-01-11T12:37:42.121Z,78.65
2018-01-11T12:38:42.042Z,78.46
2018-01-11T12:39:42.042Z,77.32
2018-01-11T12:40:41.998Z,77.03
2018-01-11T12:41:42.048Z,77.22
2018-01-11T12:42:41.942Z,77.61
2018-01-11T12:43:41.918Z,78.17
2018-01-11T12:44:41.892Z,78.08
2018-01-11T12:45:41.975Z,77.42
2018-01-11T12:46:41.841Z,77.13
2018-01-11T12:47:41.900Z,77.61
2018-01-11T12:48:41.793Z,77.80
2018-01-11T12:49:41.765Z,78.17
2018-01-11T12:50:41.746Z,78.75
2018-01-11T12:51:41.811Z,77.70